sensor_id;sensor_type;location;lat;lon;timestamp;pressure;altitude;pressure_sealevel;temperature;humidity
51147;BME280;37207;53.060;18.726;2023-07-13T00:00:47;100309.70;;;17.76;84.11
51147;BME280;37207;53.060;18.726;2023-07-13T00:03:33;100308.62;;;17.74;84.03
51147;BME280;37207;53.060;18.726;2023-07-13T00:06:01;100301.06;;;17.71;83.71
51147;BME280;37207;53.060;18.726;2023-07-13T00:08:30;100293.23;;;17.65;83.45
51147;BME280;37207;53.060;18.726;2023-07-13T00:11:00;100294.36;;;17.57;83.54
51147;BME280;37207;53.060;18.726;2023-07-13T00:13:28;100287.76;;;17.50;83.73
51147;BME280;37207;53.060;18.726;2023-07-13T00:15:57;100288.99;;;17.45;83.96
51147;BME280;37207;53.060;18.726;2023-07-13T00:18:24;100286.41;;;17.42;84.04
51147;BME280;37207;53.060;18.726;2023-07-13T00:20:51;100284.36;;;17.38;83.95
51147;BME280;37207;53.060;18.726;2023-07-13T00:23:17;100285.38;;;17.33;83.85
51147;BME280;37207;53.060;18.726;2023-07-13T00:25:45;100286.59;;;17.27;83.78
51147;BME280;37207;53.060;18.726;2023-07-13T00:28:11;100288.54;;;17.21;83.84
51147;BME280;37207;53.060;18.726;2023-07-13T00:30:38;100286.17;;;17.17;84.04
51147;BME280;37207;53.060;18.726;2023-07-13T00:33:04;100284.23;;;17.13;84.12
51147;BME280;37207;53.060;18.726;2023-07-13T00:35:31;100285.13;;;17.10;84.27
51147;BME280;37207;53.060;18.726;2023-07-13T00:37:58;100284.03;;;17.05;84.35
51147;BME280;37207;53.060;18.726;2023-07-13T00:40:25;100289.44;;;17.04;84.57
51147;BME280;37207;53.060;18.726;2023-07-13T00:42:52;100288.52;;;17.04;84.58
51147;BME280;37207;53.060;18.726;2023-07-13T00:47:46;100295.19;;;17.00;84.50
51147;BME280;37207;53.060;18.726;2023-07-13T00:50:14;100296.45;;;16.98;84.55
51147;BME280;37207;53.060;18.726;2023-07-13T00:52:52;100297.29;;;16.95;84.54
51147;BME280;37207;53.060;18.726;2023-07-13T00:55:20;100294.45;;;16.92;84.49
51147;BME280;37207;53.060;18.726;2023-07-13T00:57:48;100296.45;;;16.88;84.51
51147;BME280;37207;53.060;18.726;2023-07-13T01:00:15;100300.09;;;16.83;84.49
51147;BME280;37207;53.060;18.726;2023-07-13T01:02:45;100302.15;;;16.79;84.44
51147;BME280;37207;53.060;18.726;2023-07-13T01:05:15;100296.17;;;16.77;84.58
51147;BME280;37207;53.060;18.726;2023-07-13T01:07:43;100294.52;;;16.75;84.86
51147;BME280;37207;53.060;18.726;2023-07-13T01:10:12;100295.89;;;16.78;84.99
51147;BME280;37207;53.060;18.726;2023-07-13T01:12:39;100309.85;;;16.80;85.14
51147;BME280;37207;53.060;18.726;2023-07-13T01:15:36;100313.55;;;16.79;85.09
51147;BME280;37207;53.060;18.726;2023-07-13T01:18:20;100310.67;;;16.77;84.95
51147;BME280;37207;53.060;18.726;2023-07-13T01:21:01;100319.28;;;16.78;85.13
51147;BME280;37207;53.060;18.726;2023-07-13T01:23:29;100315.94;;;16.78;85.06
51147;BME280;37207;53.060;18.726;2023-07-13T01:25:57;100312.59;;;16.75;84.78
51147;BME280;37207;53.060;18.726;2023-07-13T01:28:25;100313.48;;;16.73;84.89
51147;BME280;37207;53.060;18.726;2023-07-13T01:30:55;100307.84;;;16.71;84.91
51147;BME280;37207;53.060;18.726;2023-07-13T01:33:23;100304.98;;;16.66;84.98
51147;BME280;37207;53.060;18.726;2023-07-13T01:35:50;100306.21;;;16.65;85.06
51147;BME280;37207;53.060;18.726;2023-07-13T01:38:20;100302.66;;;16.64;84.94
51147;BME280;37207;53.060;18.726;2023-07-13T01:40:47;100300.80;;;16.64;85.11
51147;BME280;37207;53.060;18.726;2023-07-13T01:43:14;100298.34;;;16.63;85.34
51147;BME280;37207;53.060;18.726;2023-07-13T01:45:40;100297.95;;;16.62;85.45
51147;BME280;37207;53.060;18.726;2023-07-13T01:48:07;100295.84;;;16.60;85.36
51147;BME280;37207;53.060;18.726;2023-07-13T01:50:34;100298.29;;;16.60;85.45
51147;BME280;37207;53.060;18.726;2023-07-13T01:53:00;100303.01;;;16.60;85.53
51147;BME280;37207;53.060;18.726;2023-07-13T01:55:29;100306.24;;;16.60;85.47
51147;BME280;37207;53.060;18.726;2023-07-13T01:57:56;100313.90;;;16.60;85.57
51147;BME280;37207;53.060;18.726;2023-07-13T02:00:23;100322.42;;;16.60;85.65
51147;BME280;37207;53.060;18.726;2023-07-13T02:02:51;100319.78;;;16.60;85.72
51147;BME280;37207;53.060;18.726;2023-07-13T02:05:18;100321.52;;;16.62;85.83
51147;BME280;37207;53.060;18.726;2023-07-13T02:07:46;100324.19;;;16.63;85.87
51147;BME280;37207;53.060;18.726;2023-07-13T02:10:12;100323.70;;;16.65;85.97
51147;BME280;37207;53.060;18.726;2023-07-13T02:12:40;100334.15;;;16.68;85.98
51147;BME280;37207;53.060;18.726;2023-07-13T02:15:07;100333.69;;;16.71;86.07
51147;BME280;37207;53.060;18.726;2023-07-13T02:17:35;100330.89;;;16.75;86.10
51147;BME280;37207;53.060;18.726;2023-07-13T02:20:03;100331.77;;;16.77;86.22
51147;BME280;37207;53.060;18.726;2023-07-13T02:22:30;100324.60;;;16.75;85.92
51147;BME280;37207;53.060;18.726;2023-07-13T02:24:57;100317.02;;;16.71;85.95
51147;BME280;37207;53.060;18.726;2023-07-13T02:27:24;100321.31;;;16.69;85.85
51147;BME280;37207;53.060;18.726;2023-07-13T02:29:50;100320.82;;;16.71;85.98
51147;BME280;37207;53.060;18.726;2023-07-13T02:32:18;100316.25;;;16.71;86.06
51147;BME280;37207;53.060;18.726;2023-07-13T02:34:44;100309.76;;;16.68;85.99
51147;BME280;37207;53.060;18.726;2023-07-13T02:37:11;100309.39;;;16.66;86.00
51147;BME280;37207;53.060;18.726;2023-07-13T02:39:38;100307.33;;;16.65;86.19
51147;BME280;37207;53.060;18.726;2023-07-13T02:42:05;100309.52;;;16.65;86.31
51147;BME280;37207;53.060;18.726;2023-07-13T02:44:32;100312.05;;;16.65;86.37
51147;BME280;37207;53.060;18.726;2023-07-13T02:46:59;100308.85;;;16.65;86.46
51147;BME280;37207;53.060;18.726;2023-07-13T02:49:25;100306.95;;;16.66;86.46
51147;BME280;37207;53.060;18.726;2023-07-13T02:51:52;100306.70;;;16.67;86.64
51147;BME280;37207;53.060;18.726;2023-07-13T02:54:19;100311.16;;;16.67;86.57
51147;BME280;37207;53.060;18.726;2023-07-13T02:56:45;100312.88;;;16.67;86.65
51147;BME280;37207;53.060;18.726;2023-07-13T02:59:12;100314.52;;;16.68;86.83
51147;BME280;37207;53.060;18.726;2023-07-13T03:01:39;100314.47;;;16.72;86.93
51147;BME280;37207;53.060;18.726;2023-07-13T03:04:06;100308.62;;;16.73;87.00
51147;BME280;37207;53.060;18.726;2023-07-13T03:06:34;100309.70;;;16.74;86.96
51147;BME280;37207;53.060;18.726;2023-07-13T03:09:02;100310.79;;;16.77;87.09
51147;BME280;37207;53.060;18.726;2023-07-13T03:11:30;100301.08;;;16.78;87.07
51147;BME280;37207;53.060;18.726;2023-07-13T03:14:04;100298.24;;;16.78;87.17
51147;BME280;37207;53.060;18.726;2023-07-13T03:16:34;100298.24;;;16.79;87.05
51147;BME280;37207;53.060;18.726;2023-07-13T03:19:00;100300.30;;;16.83;87.30
51147;BME280;37207;53.060;18.726;2023-07-13T03:21:27;100301.68;;;16.85;87.30
51147;BME280;37207;53.060;18.726;2023-07-13T03:23:54;100311.10;;;16.88;87.25
51147;BME280;37207;53.060;18.726;2023-07-13T03:26:21;100307.51;;;16.91;87.19
51147;BME280;37207;53.060;18.726;2023-07-13T03:28:49;100301.80;;;16.93;87.16
51147;BME280;37207;53.060;18.726;2023-07-13T03:31:25;100302.52;;;16.95;87.09
51147;BME280;37207;53.060;18.726;2023-07-13T03:33:52;100298.21;;;16.99;87.06
51147;BME280;37207;53.060;18.726;2023-07-13T03:36:24;100299.46;;;17.02;86.98
51147;BME280;37207;53.060;18.726;2023-07-13T03:38:58;100304.88;;;17.06;86.98
51147;BME280;37207;53.060;18.726;2023-07-13T03:41:27;100313.80;;;17.09;86.93
51147;BME280;37207;53.060;18.726;2023-07-13T03:43:54;100310.10;;;17.10;86.87
51147;BME280;37207;53.060;18.726;2023-07-13T03:46:22;100314.27;;;17.11;86.80
51147;BME280;37207;53.060;18.726;2023-07-13T03:48:48;100321.67;;;17.12;86.90
51147;BME280;37207;53.060;18.726;2023-07-13T03:51:16;100324.11;;;17.16;87.00
51147;BME280;37207;53.060;18.726;2023-07-13T03:53:45;100324.45;;;17.22;87.25
51147;BME280;37207;53.060;18.726;2023-07-13T03:56:15;100321.92;;;17.29;87.47
51147;BME280;37207;53.060;18.726;2023-07-13T03:58:43;100325.46;;;17.39;87.68
51147;BME280;37207;53.060;18.726;2023-07-13T04:01:16;100326.60;;;17.50;87.80
51147;BME280;37207;53.060;18.726;2023-07-13T04:03:43;100324.83;;;17.60;87.72
51147;BME280;37207;53.060;18.726;2023-07-13T04:06:29;100327.52;;;17.69;87.59
51147;BME280;37207;53.060;18.726;2023-07-13T04:08:59;100329.67;;;17.78;87.73
51147;BME280;37207;53.060;18.726;2023-07-13T04:11:28;100323.73;;;17.84;87.53
51147;BME280;37207;53.060;18.726;2023-07-13T04:13:56;100324.71;;;17.92;87.54
51147;BME280;37207;53.060;18.726;2023-07-13T04:16:23;100326.88;;;18.00;87.61
51147;BME280;37207;53.060;18.726;2023-07-13T04:18:49;100332.15;;;18.06;87.40
51147;BME280;37207;53.060;18.726;2023-07-13T04:21:16;100336.45;;;18.12;87.08
51147;BME280;37207;53.060;18.726;2023-07-13T04:23:43;100340.86;;;18.15;87.01
51147;BME280;37207;53.060;18.726;2023-07-13T04:26:09;100345.52;;;18.19;86.97
51147;BME280;37207;53.060;18.726;2023-07-13T04:28:36;100352.14;;;18.21;86.87
51147;BME280;37207;53.060;18.726;2023-07-13T04:31:03;100353.42;;;18.22;86.82
51147;BME280;37207;53.060;18.726;2023-07-13T04:33:30;100358.41;;;18.24;86.78
51147;BME280;37207;53.060;18.726;2023-07-13T04:35:57;100363.46;;;18.26;86.62
51147;BME280;37207;53.060;18.726;2023-07-13T04:38:29;100371.42;;;18.28;86.52
51147;BME280;37207;53.060;18.726;2023-07-13T04:40:59;100377.61;;;18.32;86.58
51147;BME280;37207;53.060;18.726;2023-07-13T04:43:27;100381.05;;;18.35;86.35
51147;BME280;37207;53.060;18.726;2023-07-13T04:45:54;100382.52;;;18.39;86.34
51147;BME280;37207;53.060;18.726;2023-07-13T04:48:21;100388.77;;;18.41;86.19
51147;BME280;37207;53.060;18.726;2023-07-13T04:50:57;100382.36;;;18.42;86.06
51147;BME280;37207;53.060;18.726;2023-07-13T04:53:25;100376.52;;;18.46;85.99
51147;BME280;37207;53.060;18.726;2023-07-13T04:55:52;100373.72;;;18.47;85.89
51147;BME280;37207;53.060;18.726;2023-07-13T04:58:19;100370.73;;;18.49;85.87
51147;BME280;37207;53.060;18.726;2023-07-13T05:00:45;100365.01;;;18.52;85.81
51147;BME280;37207;53.060;18.726;2023-07-13T05:03:12;100368.61;;;18.56;85.75
51147;BME280;37207;53.060;18.726;2023-07-13T05:05:38;100372.91;;;18.63;85.81
51147;BME280;37207;53.060;18.726;2023-07-13T05:08:05;100377.83;;;18.72;85.82
51147;BME280;37207;53.060;18.726;2023-07-13T05:10:35;100385.13;;;18.84;85.80
51147;BME280;37207;53.060;18.726;2023-07-13T05:13:01;100391.88;;;18.96;85.76
51147;BME280;37207;53.060;18.726;2023-07-13T05:15:29;100397.15;;;19.18;85.52
51147;BME280;37207;53.060;18.726;2023-07-13T05:17:56;100401.92;;;19.38;84.99
51147;BME280;37207;53.060;18.726;2023-07-13T05:20:22;100403.84;;;19.46;84.86
51147;BME280;37207;53.060;18.726;2023-07-13T05:22:49;100403.98;;;19.53;84.42
51147;BME280;37207;53.060;18.726;2023-07-13T05:25:16;100409.34;;;19.58;84.25
51147;BME280;37207;53.060;18.726;2023-07-13T05:27:43;100412.59;;;19.67;84.48
51147;BME280;37207;53.060;18.726;2023-07-13T05:30:12;100421.13;;;19.80;84.55
51147;BME280;37207;53.060;18.726;2023-07-13T05:32:38;100423.05;;;19.93;84.50
51147;BME280;37207;53.060;18.726;2023-07-13T05:35:06;100423.87;;;20.04;84.09
51147;BME280;37207;53.060;18.726;2023-07-13T05:37:33;100422.70;;;20.16;83.91
51147;BME280;37207;53.060;18.726;2023-07-13T05:40:00;100426.39;;;20.28;83.49
51147;BME280;37207;53.060;18.726;2023-07-13T05:42:26;100425.02;;;20.40;82.82
51147;BME280;37207;53.060;18.726;2023-07-13T05:44:53;100429.25;;;20.46;82.44
51147;BME280;37207;53.060;18.726;2023-07-13T05:47:19;100437.37;;;20.49;81.77
51147;BME280;37207;53.060;18.726;2023-07-13T05:49:46;100438.16;;;20.50;81.61
51147;BME280;37207;53.060;18.726;2023-07-13T05:52:12;100438.77;;;20.49;81.19
51147;BME280;37207;53.060;18.726;2023-07-13T05:54:39;100449.94;;;20.47;80.80
51147;BME280;37207;53.060;18.726;2023-07-13T05:57:06;100457.34;;;20.46;80.62
51147;BME280;37207;53.060;18.726;2023-07-13T05:59:32;100462.73;;;20.47;80.44
51147;BME280;37207;53.060;18.726;2023-07-13T06:01:59;100458.95;;;20.47;80.24
51147;BME280;37207;53.060;18.726;2023-07-13T06:04:25;100454.05;;;20.47;80.03
51147;BME280;37207;53.060;18.726;2023-07-13T06:06:52;100450.88;;;20.48;79.94
51147;BME280;37207;53.060;18.726;2023-07-13T06:09:19;100450.36;;;20.50;80.05
51147;BME280;37207;53.060;18.726;2023-07-13T06:11:45;100451.90;;;20.53;79.72
51147;BME280;37207;53.060;18.726;2023-07-13T06:14:12;100454.11;;;20.54;79.62
51147;BME280;37207;53.060;18.726;2023-07-13T06:16:39;100459.09;;;20.55;79.63
51147;BME280;37207;53.060;18.726;2023-07-13T06:19:07;100460.92;;;20.57;79.44
51147;BME280;37207;53.060;18.726;2023-07-13T06:21:34;100460.79;;;20.62;79.28
51147;BME280;37207;53.060;18.726;2023-07-13T06:24:00;100461.92;;;20.74;79.51
51147;BME280;37207;53.060;18.726;2023-07-13T06:26:27;100455.70;;;20.86;79.13
51147;BME280;37207;53.060;18.726;2023-07-13T06:28:54;100451.02;;;20.99;79.24
51147;BME280;37207;53.060;18.726;2023-07-13T06:31:21;100443.79;;;21.14;78.88
51147;BME280;37207;53.060;18.726;2023-07-13T06:33:47;100447.46;;;21.29;78.91
51147;BME280;37207;53.060;18.726;2023-07-13T06:36:14;100448.64;;;21.41;78.22
51147;BME280;37207;53.060;18.726;2023-07-13T06:38:40;100443.63;;;21.44;77.55
51147;BME280;37207;53.060;18.726;2023-07-13T06:41:07;100443.23;;;21.43;76.88
51147;BME280;37207;53.060;18.726;2023-07-13T06:43:34;100443.36;;;21.43;76.37
51147;BME280;37207;53.060;18.726;2023-07-13T06:46:01;100442.08;;;21.46;76.40
51147;BME280;37207;53.060;18.726;2023-07-13T06:48:28;100441.30;;;21.53;76.45
51147;BME280;37207;53.060;18.726;2023-07-13T06:50:55;100435.81;;;21.59;76.34
51147;BME280;37207;53.060;18.726;2023-07-13T06:53:22;100432.07;;;21.65;75.63
51147;BME280;37207;53.060;18.726;2023-07-13T06:55:49;100430.15;;;21.68;75.03
51147;BME280;37207;53.060;18.726;2023-07-13T06:58:18;100431.52;;;21.74;74.92
51147;BME280;37207;53.060;18.726;2023-07-13T07:00:46;100428.36;;;21.79;74.42
51147;BME280;37207;53.060;18.726;2023-07-13T07:03:13;100423.27;;;21.84;74.22
51147;BME280;37207;53.060;18.726;2023-07-13T07:05:39;100426.27;;;21.91;73.79
51147;BME280;37207;53.060;18.726;2023-07-13T07:08:06;100426.34;;;21.97;73.69
51147;BME280;37207;53.060;18.726;2023-07-13T07:10:33;100425.45;;;22.04;73.59
51147;BME280;37207;53.060;18.726;2023-07-13T07:13:01;100431.64;;;22.12;73.22
51147;BME280;37207;53.060;18.726;2023-07-13T07:15:27;100441.05;;;22.18;72.82
51147;BME280;37207;53.060;18.726;2023-07-13T07:17:54;100440.40;;;22.29;72.55
51147;BME280;37207;53.060;18.726;2023-07-13T07:20:21;100446.43;;;22.42;72.50
51147;BME280;37207;53.060;18.726;2023-07-13T07:22:48;100452.50;;;22.55;72.15
51147;BME280;37207;53.060;18.726;2023-07-13T07:25:15;100456.29;;;22.70;71.84
51147;BME280;37207;53.060;18.726;2023-07-13T07:27:42;100456.42;;;22.86;71.55
51147;BME280;37207;53.060;18.726;2023-07-13T07:30:08;100458.33;;;23.08;71.69
51147;BME280;37207;53.060;18.726;2023-07-13T07:32:35;100458.02;;;23.30;70.96
51147;BME280;37207;53.060;18.726;2023-07-13T07:35:02;100458.06;;;23.51;70.38
51147;BME280;37207;53.060;18.726;2023-07-13T07:37:28;100458.66;;;23.70;70.37
51147;BME280;37207;53.060;18.726;2023-07-13T07:39:55;100453.02;;;23.92;69.82
51147;BME280;37207;53.060;18.726;2023-07-13T07:42:22;100457.73;;;24.15;69.27
51147;BME280;37207;53.060;18.726;2023-07-13T07:44:48;100460.20;;;24.30;67.80
51147;BME280;37207;53.060;18.726;2023-07-13T07:47:15;100467.76;;;24.35;66.74
51147;BME280;37207;53.060;18.726;2023-07-13T07:49:42;100466.42;;;24.39;66.74
51147;BME280;37207;53.060;18.726;2023-07-13T07:52:09;100461.42;;;24.46;66.15
51147;BME280;37207;53.060;18.726;2023-07-13T07:54:35;100455.67;;;24.55;66.26
51147;BME280;37207;53.060;18.726;2023-07-13T07:57:02;100454.89;;;24.67;66.16
51147;BME280;37207;53.060;18.726;2023-07-13T07:59:29;100459.59;;;24.75;65.29
51147;BME280;37207;53.060;18.726;2023-07-13T08:01:55;100467.26;;;24.83;64.85
51147;BME280;37207;53.060;18.726;2023-07-13T08:04:22;100474.20;;;24.86;63.97
51147;BME280;37207;53.060;18.726;2023-07-13T08:06:48;100478.51;;;24.86;63.17
51147;BME280;37207;53.060;18.726;2023-07-13T08:09:15;100475.02;;;24.84;62.84
51147;BME280;37207;53.060;18.726;2023-07-13T08:11:41;100471.64;;;24.86;62.66
51147;BME280;37207;53.060;18.726;2023-07-13T08:14:08;100471.73;;;24.88;62.07
51147;BME280;37207;53.060;18.726;2023-07-13T08:16:35;100476.24;;;24.91;62.08
51147;BME280;37207;53.060;18.726;2023-07-13T08:19:02;100476.95;;;24.95;61.57
51147;BME280;37207;53.060;18.726;2023-07-13T08:21:28;100479.04;;;24.98;61.42
51147;BME280;37207;53.060;18.726;2023-07-13T08:23:55;100477.91;;;25.05;61.66
51147;BME280;37207;53.060;18.726;2023-07-13T08:26:22;100477.89;;;25.10;61.14
51147;BME280;37207;53.060;18.726;2023-07-13T08:28:49;100475.38;;;25.11;60.84
51147;BME280;37207;53.060;18.726;2023-07-13T08:31:15;100481.77;;;25.08;60.07
51147;BME280;37207;53.060;18.726;2023-07-13T08:33:42;100480.23;;;24.99;59.72
51147;BME280;37207;53.060;18.726;2023-07-13T08:36:08;100487.04;;;24.90;59.49
51147;BME280;37207;53.060;18.726;2023-07-13T08:38:35;100487.42;;;24.84;59.58
51147;BME280;37207;53.060;18.726;2023-07-13T08:41:11;100486.95;;;24.80;60.19
51147;BME280;37207;53.060;18.726;2023-07-13T08:43:38;100485.36;;;24.83;59.76
51147;BME280;37207;53.060;18.726;2023-07-13T08:46:26;100489.02;;;24.85;59.24
51147;BME280;37207;53.060;18.726;2023-07-13T08:49:01;100484.44;;;24.84;59.01
51147;BME280;37207;53.060;18.726;2023-07-13T08:51:49;100483.73;;;24.82;58.91
51147;BME280;37207;53.060;18.726;2023-07-13T08:56:53;100482.48;;;24.77;58.85
51147;BME280;37207;53.060;18.726;2023-07-13T08:59:25;100483.52;;;24.81;59.07
51147;BME280;37207;53.060;18.726;2023-07-13T09:02:03;100488.63;;;24.94;59.21
51147;BME280;37207;53.060;18.726;2023-07-13T09:05:18;100487.45;;;25.14;59.20
51147;BME280;37207;53.060;18.726;2023-07-13T09:07:34;100489.73;;;25.36;58.50
51147;BME280;37207;53.060;18.726;2023-07-13T09:10:30;100486.08;;;25.52;57.82
51147;BME280;37207;53.060;18.726;2023-07-13T09:13:19;100483.95;;;25.73;57.89
51147;BME280;37207;53.060;18.726;2023-07-13T09:15:50;100482.21;;;25.95;57.65
51147;BME280;37207;53.060;18.726;2023-07-13T09:18:31;100475.12;;;26.13;56.92
51147;BME280;37207;53.060;18.726;2023-07-13T09:21:04;100474.80;;;26.30;55.43
51147;BME280;37207;53.060;18.726;2023-07-13T09:23:34;100474.30;;;26.51;55.11
51147;BME280;37207;53.060;18.726;2023-07-13T09:26:09;100478.36;;;26.89;54.54
51147;BME280;37207;53.060;18.726;2023-07-13T09:28:42;100478.70;;;27.12;53.26
51147;BME280;37207;53.060;18.726;2023-07-13T09:33:39;100470.16;;;28.25;52.44
51147;BME280;37207;53.060;18.726;2023-07-13T09:36:22;100475.95;;;28.85;50.26
51147;BME280;37207;53.060;18.726;2023-07-13T09:38:59;100470.66;;;29.11;49.89
51147;BME280;37207;53.060;18.726;2023-07-13T09:41:51;100470.41;;;29.37;49.35
51147;BME280;37207;53.060;18.726;2023-07-13T09:44:34;100465.86;;;29.57;49.01
51147;BME280;37207;53.060;18.726;2023-07-13T09:47:02;100464.67;;;29.74;48.48
51147;BME280;37207;53.060;18.726;2023-07-13T09:49:33;100471.70;;;29.80;47.98
51147;BME280;37207;53.060;18.726;2023-07-13T09:52:04;100471.85;;;29.85;47.97
51147;BME280;37207;53.060;18.726;2023-07-13T09:54:34;100468.45;;;29.70;47.37
51147;BME280;37207;53.060;18.726;2023-07-13T09:57:03;100462.75;;;29.55;47.55
51147;BME280;37207;53.060;18.726;2023-07-13T09:59:34;100457.59;;;29.47;47.65
51147;BME280;37207;53.060;18.726;2023-07-13T10:02:00;100456.85;;;29.32;47.54
51147;BME280;37207;53.060;18.726;2023-07-13T10:04:31;100458.52;;;29.10;47.73
51147;BME280;37207;53.060;18.726;2023-07-13T10:07:11;100453.65;;;28.91;48.09
51147;BME280;37207;53.060;18.726;2023-07-13T10:09:40;100450.02;;;28.78;48.25
51147;BME280;37207;53.060;18.726;2023-07-13T10:12:14;100453.06;;;28.76;48.70
51147;BME280;37207;53.060;18.726;2023-07-13T10:14:42;100450.84;;;28.82;48.61
51147;BME280;37207;53.060;18.726;2023-07-13T10:17:12;100449.21;;;28.90;48.44
51147;BME280;37207;53.060;18.726;2023-07-13T10:19:42;100462.20;;;29.12;48.41
51147;BME280;37207;53.060;18.726;2023-07-13T10:25:20;100462.64;;;29.15;47.82
51147;BME280;37207;53.060;18.726;2023-07-13T10:27:53;100457.72;;;29.01;47.79
51147;BME280;37207;53.060;18.726;2023-07-13T10:30:42;100455.48;;;28.74;47.96
51147;BME280;37207;53.060;18.726;2023-07-13T10:33:12;100458.56;;;28.39;48.15
51147;BME280;37207;53.060;18.726;2023-07-13T10:35:42;100459.38;;;28.05;48.46
51147;BME280;37207;53.060;18.726;2023-07-13T10:38:13;100472.19;;;27.70;48.93
51147;BME280;37207;53.060;18.726;2023-07-13T10:40:43;100481.63;;;27.24;48.94
51147;BME280;37207;53.060;18.726;2023-07-13T10:43:18;100488.38;;;26.80;49.71
51147;BME280;37207;53.060;18.726;2023-07-13T10:45:47;100493.64;;;26.44;50.71
51147;BME280;37207;53.060;18.726;2023-07-13T10:48:17;100498.73;;;26.10;51.33
51147;BME280;37207;53.060;18.726;2023-07-13T10:50:46;100495.55;;;25.73;52.24
51147;BME280;37207;53.060;18.726;2023-07-13T10:53:29;100496.97;;;25.42;53.04
51147;BME280;37207;53.060;18.726;2023-07-13T10:58:33;100508.39;;;24.96;54.50
51147;BME280;37207;53.060;18.726;2023-07-13T11:03:28;100516.14;;;24.42;56.18
51147;BME280;37207;53.060;18.726;2023-07-13T11:06:09;100509.35;;;24.18;57.60
51147;BME280;37207;53.060;18.726;2023-07-13T11:11:35;100514.92;;;23.76;60.27
51147;BME280;37207;53.060;18.726;2023-07-13T11:14:04;100518.73;;;23.55;61.41
51147;BME280;37207;53.060;18.726;2023-07-13T11:16:37;100519.96;;;23.40;62.19
51147;BME280;37207;53.060;18.726;2023-07-13T11:22:02;100503.35;;;23.15;62.96
51147;BME280;37207;53.060;18.726;2023-07-13T11:24:30;100500.76;;;23.11;62.93
51147;BME280;37207;53.060;18.726;2023-07-13T11:27:27;100501.05;;;23.06;62.93
51147;BME280;37207;53.060;18.726;2023-07-13T11:35:36;100506.77;;;22.83;62.28
51147;BME280;37207;53.060;18.726;2023-07-13T11:38:18;100507.61;;;22.74;61.81
51147;BME280;37207;53.060;18.726;2023-07-13T11:40:47;100503.65;;;22.67;61.58
51147;BME280;37207;53.060;18.726;2023-07-13T11:43:16;100499.04;;;22.61;61.20
51147;BME280;37207;53.060;18.726;2023-07-13T11:45:43;100496.83;;;22.52;60.90
51147;BME280;37207;53.060;18.726;2023-07-13T11:48:29;100493.92;;;22.44;61.32
51147;BME280;37207;53.060;18.726;2023-07-13T11:51:05;100497.35;;;22.41;61.34
51147;BME280;37207;53.060;18.726;2023-07-13T11:53:44;100498.16;;;22.43;61.65
51147;BME280;37207;53.060;18.726;2023-07-13T11:56:12;100499.98;;;22.42;61.58
51147;BME280;37207;53.060;18.726;2023-07-13T11:58:38;100499.48;;;22.42;61.84
51147;BME280;37207;53.060;18.726;2023-07-13T12:01:05;100498.14;;;22.41;61.71
51147;BME280;37207;53.060;18.726;2023-07-13T12:03:34;100499.23;;;22.37;61.63
51147;BME280;37207;53.060;18.726;2023-07-13T12:06:06;100502.73;;;22.37;62.09
51147;BME280;37207;53.060;18.726;2023-07-13T12:08:44;100499.22;;;22.43;62.34
51147;BME280;37207;53.060;18.726;2023-07-13T12:11:16;100497.22;;;22.51;62.47
51147;BME280;37207;53.060;18.726;2023-07-13T12:13:44;100497.64;;;22.61;63.03
51147;BME280;37207;53.060;18.726;2023-07-13T12:16:27;100493.52;;;22.72;62.83
51147;BME280;37207;53.060;18.726;2023-07-13T12:18:55;100494.16;;;22.84;62.57
51147;BME280;37207;53.060;18.726;2023-07-13T12:21:29;100497.78;;;22.99;62.57
51147;BME280;37207;53.060;18.726;2023-07-13T12:23:57;100496.92;;;23.15;62.23
51147;BME280;37207;53.060;18.726;2023-07-13T12:26:24;100493.63;;;23.32;62.39
51147;BME280;37207;53.060;18.726;2023-07-13T12:28:54;100486.45;;;23.50;62.46
51147;BME280;37207;53.060;18.726;2023-07-13T12:34:21;100476.05;;;23.97;61.31
51147;BME280;37207;53.060;18.726;2023-07-13T12:36:56;100470.94;;;24.32;61.24
51147;BME280;37207;53.060;18.726;2023-07-13T12:39:30;100466.43;;;24.78;60.48
51147;BME280;37207;53.060;18.726;2023-07-13T12:42:26;100466.02;;;25.24;59.67
51147;BME280;37207;53.060;18.726;2023-07-13T12:44:58;100466.29;;;25.65;58.21
51147;BME280;37207;53.060;18.726;2023-07-13T12:47:26;100463.02;;;26.00;57.76
51147;BME280;37207;53.060;18.726;2023-07-13T12:49:56;100462.73;;;26.43;57.47
51147;BME280;37207;53.060;18.726;2023-07-13T12:52:28;100459.42;;;26.86;56.66
51147;BME280;37207;53.060;18.726;2023-07-13T12:55:01;100456.66;;;27.26;55.55
51147;BME280;37207;53.060;18.726;2023-07-13T12:57:29;100451.14;;;27.62;54.57
51147;BME280;37207;53.060;18.726;2023-07-13T12:59:56;100453.87;;;27.81;53.60
51147;BME280;37207;53.060;18.726;2023-07-13T13:02:29;100457.15;;;28.03;52.16
51147;BME280;37207;53.060;18.726;2023-07-13T13:04:57;100460.71;;;28.25;51.61
51147;BME280;37207;53.060;18.726;2023-07-13T13:07:25;100467.27;;;28.37;50.00
51147;BME280;37207;53.060;18.726;2023-07-13T13:09:52;100473.11;;;28.42;49.62
51147;BME280;37207;53.060;18.726;2023-07-13T13:12:22;100475.70;;;28.43;49.05
51147;BME280;37207;53.060;18.726;2023-07-13T13:14:52;100473.80;;;28.35;48.79
51147;BME280;37207;53.060;18.726;2023-07-13T13:17:21;100471.29;;;28.26;49.08
51147;BME280;37207;53.060;18.726;2023-07-13T13:19:51;100470.73;;;28.14;49.08
51147;BME280;37207;53.060;18.726;2023-07-13T13:22:21;100462.66;;;28.00;49.11